Palermo, California
Current Conditions -  °F | °C
As of 1:53 PM on Friday 28 Nov 2014 (Local Time) from KOVE Reporting Station
Broken Clouds Broken Clouds  
Wind Chill: 63°   Ceiling: 7000
Heat Index: 63°   Visibility: 7mi
Dew Point: 46°   Wind: 9mph
Humidity: 54%   Direction: 190°S
Pressure: 29.92"   Gusts: NA
Location:  39.44°N, 121.54°W
Report Text: KOVE 282153Z AUTO 19008KT 7SM BKN070 17/08 A2992 RMK AO2 SLP132 T01720078
Loading
Personal Weather Stations






























Interactive Weather Map New forecast layout! Learn more

10-Day Weather Forecast

Advertisements
Track Severe Weather on mobile